| time (UTC) | temp C | wind direction | speed KPH | gust KPH | rain 1hr cm | rain 24hr cm | rain mn cm | humidity % | barometer mb |
| 20260503185824 | 16 | 357 | 8.0 | 16.1 | 0.30 | 10.69 | 0.71 | 94 | 1016.7 |
| 20260503185329 | 16 | 358 | 8.0 | 16.1 | 0.30 | 10.69 | 0.71 | 94 | 1016.8 |
| 20260503184854 | 16 | 8 | 9.7 | 16.1 | 0.41 | 10.69 | 0.71 | 94 | 1016.8 |
| 20260503184319 | 16 | 340 | 9.7 | 16.1 | 0.30 | 10.59 | 0.71 | 94 | 1016.8 |
| 20260503183817 | 16 | 18 | 11.3 | 16.1 | 0.30 | 10.59 | 0.71 | 94 | 1016.7 |
| 20260503183323 | 16 | 7 | 11.3 | 16.1 | 0.41 | 10.59 | 0.71 | 94 | 1016.8 |
| 20260503182848 | 16 | 9 | 9.7 | 14.5 | 0.41 | 10.59 | 0.71 | 94 | 1016.9 |
| 20260503182332 | 16 | 347 | 6.4 | 14.5 | 0.30 | 10.49 | 0.69 | 94 | 1016.8 |
| 20260503181811 | 16 | 359 | 8.0 | 12.9 | 0.41 | 10.49 | 0.69 | 94 | 1016.7 |
| 20260503181333 | 15 | 334 | 8.0 | 14.5 | 0.41 | 10.49 | 0.69 | 94 | 1016.7 |
| 20260503180816 | 15 | 2 | 9.7 | 14.5 | 0.51 | 10.49 | 0.69 | 94 | 1016.6 |
| 20260503180321 | 15 | 358 | 9.7 | 16.1 | 0.41 | 10.39 | 0.66 | 94 | 1016.5 |
| 20260503175822 | 15 | 25 | 8.0 | 16.1 | 0.51 | 10.39 | 0.66 | 94 | 1016.6 |
| 20260503175327 | 15 | 352 | 11.3 | 16.1 | 0.51 | 10.39 | 0.66 | 94 | 1016.6 |
| 20260503174844 | 16 | 11 | 11.3 | 16.1 | 0.51 | 10.31 | 0.64 | 94 | 1016.8 |
| 20260503174334 | 16 | 9 | 9.7 | 12.9 | 0.51 | 10.31 | 0.64 | 94 | 1016.9 |
| 20260503173832 | 16 | 333 | 8.0 | 14.5 | 0.61 | 10.31 | 0.64 | 94 | 1017.0 |
| 20260503173316 | 16 | 349 | 9.7 | 17.7 | 0.51 | 10.21 | 0.61 | 94 | 1016.9 |
| 20260503172820 | 16 | 346 | 14.5 | 17.7 | 0.61 | 10.21 | 0.61 | 95 | 1016.9 |
| 20260503172344 | 16 | 17 | 11.3 | 16.1 | 0.61 | 10.21 | 0.61 | 95 | 1016.9 |
| 20260503171827 | 16 | 13 | 11.3 | 16.1 | 0.61 | 10.11 | 0.61 | 95 | 1017.1 |
| 20260503171331 | 16 | 27 | 11.3 | 16.1 | 0.71 | 10.11 | 0.61 | 95 | 1017.2 |
| 20260503170835 | 16 | 17 | 12.9 | 22.5 | 0.61 | 10.01 | 0.58 | 95 | 1017.3 |
| 20260503170311 | 16 | 344 | 14.5 | 22.5 | 0.71 | 10.01 | 0.58 | 95 | 1017.3 |
| 20260503150843 | 16 | 350 | 6.4 | 11.3 | 1.09 | 8.51 | 0.28 | 95 | 1018.8 |
| 20260503150326 | 16 | 356 | 8.0 | 14.5 | 1.19 | 8.41 | 0.25 | 95 | 1018.7 |
| 20260503131336 | 16 | 340 | 6.4 | 9.7 | 2.11 | 5.89 | 1.17 | 94 | 1019.7 |
| 20260503130815 | 16 | 359 | 4.8 | 8.0 | 2.11 | 5.79 | 1.17 | 94 | 1019.8 |
| 20260503130319 | 16 | 352 | 3.2 | 8.0 | 2.01 | 5.59 | 1.12 | 94 | 1019.9 |
| 20260503110359 | 17 | 294 | 1.6 | 4.8 | 0.79 | 1.80 | 0.36 | 92 | 1019.7 |
| 20260503090333 | 17 | 359 | 0.0 | 0.0 | 0.00 | 0.71 | 0.15 | 88 | 1018.8 |
| 20260503081338 | 18 | 305 | 4.8 | 9.7 | 0.00 | 0.71 | 0.15 | 84 | 1018.5 |
| 20260503080815 | 18 | 348 | 3.2 | 9.7 | 0.00 | 0.71 | 0.15 | 82 | 1018.6 |
| 20260503080319 | 18 | 248 | 3.2 | 12.9 | 0.00 | 0.71 | 0.15 | 82 | 1018.5 |
| 20260503072817 | 18 | 40 | 8.0 | 11.3 | 0.10 | 0.71 | 0.15 | 80 | 1017.9 |
| 20260503072314 | 18 | 31 | 8.0 | 11.3 | 0.10 | 0.71 | 0.15 | 81 | 1017.7 |
| 20260503071819 | 18 | 40 | 8.0 | 11.3 | 0.20 | 0.71 | 0.15 | 81 | 1017.7 |
| 20260503071339 | 18 | 46 | 8.0 | 16.1 | 0.30 | 0.71 | 0.15 | 82 | 1017.7 |
| 20260503070821 | 18 | 43 | 9.7 | 16.1 | 0.51 | 0.71 | 0.15 | 82 | 1017.7 |
| 20260503070326 | 17 | 46 | 11.3 | 14.5 | 0.51 | 0.71 | 0.15 | 84 | 1017.8 |
| 20260503060330 | 20 | 350 | 1.6 | 8.0 | 0.00 | 0.20 | 0.05 | 76 | 1018.2 |
| 20260503054819 | 21 | 342 | 6.4 | 9.7 | 0.20 | 0.20 | 0.05 | 71 | 1018.2 |
| 20260503054324 | 21 | 53 | 6.4 | 9.7 | 0.20 | 0.20 | 0.05 | 72 | 1018.2 |
| 20260503053828 | 21 | 58 | 4.8 | 8.0 | 0.20 | 0.20 | 0.05 | 71 | 1018.1 |
| 20260503053324 | 21 | 34 | 4.8 | 11.3 | 0.20 | 0.20 | 0.05 | 71 | 1018.2 |
| 20260503052848 | 21 | 48 | 6.4 | 17.7 | 0.20 | 0.20 | 0.05 | 71 | 1018.2 |
| 20260503052312 | 20 | 37 | 9.7 | 17.7 | 0.20 | 0.20 | 0.05 | 71 | 1018.2 |
| 20260503051836 | 20 | 10 | 8.0 | 14.5 | 0.20 | 0.20 | 0.05 | 74 | 1018.2 |
| 20260503051340 | 20 | 15 | 6.4 | 14.5 | 0.20 | 0.20 | 0.05 | 77 | 1018.3 |
| 20260503050815 | 20 | 13 | 3.2 | 8.0 | 0.20 | 0.20 | 0.05 | 77 | 1018.4 |
| 20260503050318 | 20 | 47 | 4.8 | 11.3 | 0.20 | 0.20 | 0.05 | 76 | 1018.4 |
| 20260503045820 | 21 | 297 | 1.6 | 12.9 | 0.10 | 0.10 | 0.03 | 73 | 1018.4 |
| 20260503045321 | 21 | 344 | 9.7 | 19.3 | 0.00 | 0.00 | 0.00 | 71 | 1018.5 |
| 20260503044825 | 21 | 14 | 8.0 | 19.3 | 0.00 | 0.00 | 0.00 | 69 | 1018.4 |
| 20260503044349 | 22 | 3 | 12.9 | 20.9 | 0.00 | 0.00 | 0.00 | 67 | 1018.4 |
| 20260503043832 | 22 | 9 | 14.5 | 20.9 | 0.00 | 0.00 | 0.00 | 68 | 1018.4 |
| 20260503043328 | 21 | 25 | 8.0 | 11.3 | 0.00 | 0.00 | 0.00 | 70 | 1018.5 |
| 20260503042832 | 21 | 26 | 6.4 | 14.5 | 0.00 | 0.00 | 0.00 | 72 | 1018.5 |
| 20260503042316 | 21 | 27 | 8.0 | 14.5 | 0.00 | 0.00 | 0.00 | 71 | 1018.5 |
| 20260503041841 | 21 | 11 | 9.7 | 20.9 | 0.00 | 0.00 | 0.00 | 75 | 1018.5 |
| 20260503041342 | 20 | 340 | 9.7 | 20.9 | 0.00 | 0.00 | 0.00 | 76 | 1018.6 |
| 20260503040817 | 20 | 334 | 11.3 | 16.1 | 0.00 | 0.00 | 0.00 | 76 | 1018.7 |
| 20260503040320 | 20 | 342 | 11.3 | 16.1 | 0.00 | 0.00 | 0.00 | 77 | 1018.7 |
| 20260503035820 | 20 | 15 | 6.4 | 25.7 | 0.00 | 0.00 | 0.00 | 75 | 1018.7 |
| 20260503035343 | 21 | 321 | 12.9 | 25.7 | 0.00 | 0.00 | 0.00 | 73 | 1018.9 |
| 20260503034826 | 21 | 352 | 9.7 | 14.5 | 0.00 | 0.00 | 0.00 | 74 | 1018.9 |
| 20260503034326 | 21 | 5 | 6.4 | 17.7 | 0.00 | 0.00 | 0.00 | 74 | 1018.9 |
| 20260503033828 | 21 | 333 | 8.0 | 17.7 | 0.00 | 0.00 | 0.00 | 73 | 1019.1 |
| 20260503033331 | 21 | 7 | 11.3 | 16.1 | 0.00 | 0.00 | 0.00 | 72 | 1019.0 |
| 20260503032831 | 22 | 7 | 11.3 | 22.5 | 0.00 | 0.00 | 0.00 | 70 | 1019.1 |
| 20260503032335 | 22 | 340 | 16.1 | 22.5 | 0.00 | 0.00 | 0.00 | 65 | 1019.2 |
| 20260503031833 | 22 | 15 | 16.1 | 29.0 | 0.00 | 0.00 | 0.00 | 63 | 1019.1 |
| 20260503031316 | 23 | 359 | 20.9 | 29.0 | 0.00 | 0.00 | 0.00 | 61 | 1019.2 |
| 20260503030819 | 23 | 340 | 11.3 | 27.4 | 0.00 | 0.00 | 0.00 | 62 | 1019.3 |
| 20260503030342 | 23 | 356 | 14.5 | 24.1 | 0.00 | 0.00 | 0.00 | 61 | 1019.4 |
| 20260503025824 | 23 | 360 | 16.1 | 22.5 | 0.00 | 0.00 | 0.00 | 61 | 1019.5 |
| 20260503025321 | 23 | 331 | 14.5 | 19.3 | 0.00 | 0.00 | 0.00 | 60 | 1019.6 |
| 20260503024823 | 23 | 342 | 16.1 | 22.5 | 0.00 | 0.00 | 0.00 | 59 | 1019.6 |
| 20260503024334 | 23 | 342 | 16.1 | 24.1 | 0.00 | 0.00 | 0.00 | 59 | 1019.8 |
| 20260503023827 | 24 | 341 | 14.5 | 24.1 | 0.00 | 0.00 | 0.00 | 59 | 1019.8 |
| 20260503023325 | 23 | 7 | 19.3 | 33.8 | 0.00 | 0.00 | 0.00 | 58 | 1019.9 |
| 20260503022821 | 24 | 342 | 24.1 | 35.4 | 0.00 | 0.00 | 0.00 | 58 | 1020.1 |
| 20260503022321 | 23 | 355 | 19.3 | 35.4 | 0.00 | 0.00 | 0.00 | 59 | 1020.1 |
| 20260503021823 | 23 | 17 | 20.9 | 30.6 | 0.00 | 0.00 | 0.00 | 59 | 1020.1 |
| 20260503021344 | 23 | 28 | 19.3 | 30.6 | 0.00 | 0.00 | 0.00 | 61 | 1020.1 |
| 20260503020837 | 22 | 19 | 17.7 | 29.0 | 0.00 | 0.00 | 0.00 | 60 | 1020.2 |
| 20260503020319 | 22 | 15 | 17.7 | 29.0 | 0.00 | 0.00 | 0.00 | 61 | 1020.4 |
| 20260503015816 | 22 | 25 | 16.1 | 32.2 | 0.00 | 0.00 | 0.00 | 62 | 1020.4 |
| 20260503015318 | 22 | 38 | 17.7 | 32.2 | 0.00 | 0.00 | 0.00 | 61 | 1020.5 |
| 20260503014822 | 22 | 352 | 14.5 | 33.8 | 0.00 | 0.00 | 0.00 | 62 | 1020.7 |
| 20260503014324 | 22 | 18 | 17.7 | 27.4 | 0.00 | 0.00 | 0.00 | 62 | 1020.6 |
| 20260503013821 | 22 | 360 | 14.5 | 27.4 | 0.00 | 0.00 | 0.00 | 63 | 1020.7 |
| 20260503013323 | 22 | 340 | 17.7 | 25.7 | 0.00 | 0.00 | 0.00 | 62 | 1020.8 |
| 20260503012821 | 22 | 354 | 17.7 | 27.4 | 0.00 | 0.00 | 0.00 | 62 | 1020.8 |
| 20260503012325 | 22 | 346 | 16.1 | 25.7 | 0.00 | 0.00 | 0.00 | 63 | 1020.9 |
| 20260503011829 | 21 | 350 | 17.7 | 29.0 | 0.00 | 0.00 | 0.00 | 62 | 1020.9 |
| 20260503011331 | 21 | 339 | 16.1 | 30.6 | 0.00 | 0.00 | 0.00 | 64 | 1020.9 |
| 20260503010834 | 21 | 357 | 17.7 | 29.0 | 0.00 | 0.00 | 0.00 | 63 | 1021.0 |
| 20260503010332 | 21 | 345 | 16.1 | 29.0 | 0.00 | 0.00 | 0.00 | 63 | 1021.1 |
| 20260503005812 | 21 | 333 | 16.1 | 24.1 | 0.00 | 0.00 | 0.00 | 63 | 1021.1 |
| 20260503005317 | 21 | 345 | 16.1 | 24.1 | 0.00 | 0.00 | 0.00 | 62 | 1021.1 |
| 20260503004840 | 21 | 330 | 17.7 | 27.4 | 0.00 | 0.00 | 0.00 | 61 | 1021.2 |
| 20260503004320 | 21 | 7 | 16.1 | 22.5 | 0.00 | 0.00 | 0.00 | 63 | 1021.5 |
| 20260503003841 | 21 | 11 | 16.1 | 19.3 | 0.00 | 0.00 | 0.00 | 64 | 1021.5 |
| 20260503003313 | 21 | 38 | 14.5 | 20.9 | 0.00 | 0.00 | 0.00 | 64 | 1021.4 |
| 20260503002841 | 21 | 29 | 16.1 | 22.5 | 0.00 | 0.00 | 0.00 | 64 | 1021.5 |
| 20260503002313 | 20 | 340 | 14.5 | 30.6 | 0.00 | 0.00 | 0.00 | 65 | 1021.5 |
| 20260503001812 | 20 | 359 | 19.3 | 29.0 | 0.00 | 0.00 | 0.00 | 64 | 1021.5 |
| 20260503001313 | 20 | 345 | 20.9 | 27.4 | 0.00 | 0.00 | 0.00 | 65 | 1021.5 |
| 20260503000816 | 20 | 9 | 17.7 | 27.4 | 0.00 | 0.00 | 0.00 | 65 | 1021.6 |
| 20260503000320 | 20 | 351 | 12.9 | 24.1 | 0.00 | 0.00 | 0.00 | 66 | 1021.7 |
| 20260502235823 | 20 | 344 | 12.9 | 16.1 | 0.00 | 0.00 | 0.00 | 66 | 1021.7 |
| 20260502235319 | 20 | 13 | 12.9 | 25.7 | 0.00 | 0.00 | 0.00 | 67 | 1021.8 |
| 20260502234823 | 20 | 12 | 12.9 | 25.7 | 0.00 | 0.00 | 0.00 | 66 | 1021.7 |
| 20260502234327 | 20 | 17 | 12.9 | 17.7 | 0.00 | 0.00 | 0.00 | 66 | 1021.7 |
| 20260502233830 | 20 | 24 | 9.7 | 19.3 | 0.00 | 0.00 | 0.00 | 67 | 1021.8 |
| 20260502233315 | 20 | 25 | 12.9 | 27.4 | 0.00 | 0.00 | 0.00 | 65 | 1021.8 |
| 20260502232836 | 20 | 25 | 17.7 | 27.4 | 0.00 | 0.00 | 0.00 | 65 | 1021.8 |
| 20260502232313 | 20 | 26 | 14.5 | 22.5 | 0.00 | 0.00 | 0.00 | 65 | 1021.9 |
| 20260502231817 | 20 | 1 | 14.5 | 24.1 | 0.00 | 0.00 | 0.00 | 65 | 1021.9 |
| 20260502231338 | 20 | 333 | 14.5 | 24.1 | 0.00 | 0.00 | 0.00 | 65 | 1021.8 |
| 20260502230816 | 20 | 356 | 11.3 | 22.5 | 0.00 | 0.00 | 0.00 | 65 | 1021.9 |
| 20260502230321 | 20 | 329 | 16.1 | 27.4 | 0.00 | 0.00 | 0.00 | 65 | 1021.8 |
| 20260502225822 | 20 | 356 | 12.9 | 25.7 | 0.00 | 0.00 | 0.00 | 65 | 1021.8 |
| 20260502225324 | 20 | 9 | 14.5 | 25.7 | 0.00 | 0.00 | 0.00 | 65 | 1021.8 |
| 20260502224819 | 20 | 36 | 14.5 | 24.1 | 0.00 | 0.00 | 0.00 | 65 | 1021.8 |
| 20260502224327 | 20 | 24 | 14.5 | 24.1 | 0.00 | 0.00 | 0.00 | 65 | 1021.7 |
| 20260502223824 | 20 | 19 | 9.7 | 24.1 | 0.00 | 0.00 | 0.00 | 65 | 1021.7 |
| 20260502223348 | 19 | 13 | 12.9 | 20.9 | 0.00 | 0.00 | 0.00 | 65 | 1021.6 |
| 20260502222851 | 19 | 17 | 9.7 | 16.1 | 0.00 | 0.00 | 0.00 | 66 | 1021.7 |
| 20260502222315 | 19 | 37 | 12.9 | 16.1 | 0.00 | 0.00 | 0.00 | 66 | 1021.7 |
| 20260502221811 | 19 | 5 | 11.3 | 17.7 | 0.00 | 0.00 | 0.00 | 66 | 1021.7 |
| 20260502221322 | 19 | 5 | 11.3 | 16.1 | 0.00 | 0.00 | 0.00 | 66 | 1021.6 |
| 20260502220818 | 19 | 358 | 12.9 | 20.9 | 0.00 | 0.00 | 0.00 | 65 | 1021.7 |
| 20260502220320 | 19 | 26 | 9.7 | 20.9 | 0.00 | 0.00 | 0.00 | 65 | 1021.4 |
| 20260502215821 | 19 | 346 | 9.7 | 19.3 | 0.00 | 0.00 | 0.00 | 65 | 1021.3 |
| 20260502215323 | 19 | 8 | 11.3 | 19.3 | 0.00 | 0.00 | 0.00 | 64 | 1021.2 |
| 20260502214827 | 19 | 30 | 11.3 | 20.9 | 0.00 | 0.00 | 0.00 | 64 | 1021.1 |
| 20260502214327 | 19 | 17 | 9.7 | 22.5 | 0.00 | 0.00 | 0.00 | 64 | 1021.0 |
| 20260502213829 | 19 | 353 | 14.5 | 24.1 | 0.00 | 0.00 | 0.00 | 64 | 1021.0 |
| 20260502213326 | 19 | 17 | 11.3 | 20.9 | 0.00 | 0.00 | 0.00 | 64 | 1021.0 |
| 20260502212835 | 19 | 38 | 16.1 | 20.9 | 0.00 | 0.00 | 0.00 | 65 | 1020.9 |
| 20260502212313 | 19 | 355 | 12.9 | 27.4 | 0.00 | 0.00 | 0.00 | 65 | 1021.0 |
| 20260502211818 | 19 | 7 | 12.9 | 27.4 | 0.00 | 0.00 | 0.00 | 65 | 1020.9 |
| 20260502211323 | 19 | 41 | 12.9 | 24.1 | 0.00 | 0.00 | 0.00 | 65 | 1020.9 |
| 20260502210824 | 19 | 22 | 14.5 | 24.1 | 0.00 | 0.00 | 0.00 | 65 | 1020.8 |
| 20260502210321 | 19 | 32 | 14.5 | 22.5 | 0.00 | 0.00 | 0.00 | 65 | 1020.8 |
| 20260502205823 | 19 | 19 | 14.5 | 29.0 | 0.00 | 0.00 | 0.00 | 65 | 1020.8 |
| 20260502205328 | 19 | 346 | 12.9 | 29.0 | 0.00 | 0.00 | 0.00 | 64 | 1020.8 |
| 20260502204829 | 19 | 37 | 9.7 | 17.7 | 0.00 | 0.00 | 0.00 | 64 | 1020.7 |
| 20260502204313 | 19 | 19 | 9.7 | 24.1 | 0.00 | 0.00 | 0.00 | 64 | 1020.7 |
| 20260502203811 | 19 | 15 | 12.9 | 22.5 | 0.00 | 0.00 | 0.00 | 64 | 1020.7 |
| 20260502203316 | 19 | 30 | 11.3 | 22.5 | 0.00 | 0.00 | 0.00 | 64 | 1020.7 |
| 20260502202819 | 19 | 19 | 11.3 | 17.7 | 0.00 | 0.00 | 0.00 | 64 | 1020.5 |
| 20260502202324 | 19 | 21 | 12.9 | 22.5 | 0.00 | 0.00 | 0.00 | 64 | 1020.6 |
| 20260502201827 | 19 | 33 | 11.3 | 22.5 | 0.00 | 0.00 | 0.00 | 64 | 1020.6 |
| 20260502201311 | 19 | 21 | 11.3 | 20.9 | 0.00 | 0.00 | 0.00 | 65 | 1020.5 |
| 20260502200836 | 19 | 30 | 11.3 | 20.9 | 0.00 | 0.00 | 0.00 | 65 | 1020.5 |
| 20260502200312 | 18 | 26 | 11.3 | 19.3 | 0.00 | 0.00 | 0.00 | 66 | 1020.6 |
| 20260502195832 | 18 | 5 | 6.4 | 16.1 | 0.00 | 0.00 | 0.00 | 67 | 1020.6 |
| 20260502195315 | 18 | 31 | 8.0 | 16.1 | 0.00 | 0.00 | 0.00 | 67 | 1020.5 |
| 20260502194821 | 18 | 23 | 9.7 | 17.7 | 0.00 | 0.00 | 0.00 | 67 | 1020.3 |
| 20260502194346 | 18 | 44 | 9.7 | 17.7 | 0.00 | 0.00 | 0.00 | 67 | 1020.4 |
| 20260502193851 | 18 | 32 | 8.0 | 16.1 | 0.00 | 0.00 | 0.00 | 67 | 1020.4 |
| 20260502193321 | 18 | 41 | 11.3 | 16.1 | 0.00 | 0.00 | 0.00 | 67 | 1020.4 |
| 20260502192824 | 18 | 37 | 9.7 | 19.3 | 0.00 | 0.00 | 0.00 | 67 | 1020.3 |
| 20260502192329 | 19 | 42 | 11.3 | 22.5 | 0.00 | 0.00 | 0.00 | 67 | 1020.3 |
| 20260502191855 | 19 | 37 | 11.3 | 20.9 | 0.00 | 0.00 | 0.00 | 67 | 1020.3 |
| 20260502191317 | 19 | 15 | 11.3 | 22.5 | 0.00 | 0.00 | 0.00 | 67 | 1020.3 |
| 20260502190836 | 19 | 18 | 11.3 | 25.7 | 0.00 | 0.00 | 0.00 | 67 | 1020.3 |